createdAt,value
2019-06-27T00:00:12.270Z,29.20
2019-06-27T00:02:40.709Z,29.20
2019-06-27T00:05:09.266Z,29.20
2019-06-27T00:07:37.975Z,29.10
2019-06-27T00:10:07.902Z,29.10
2019-06-27T00:12:36.301Z,29.10
2019-06-27T00:15:05.369Z,29.10
2019-06-27T00:17:34.065Z,29.00
2019-06-27T00:20:02.891Z,29.00
2019-06-27T00:22:31.384Z,29.00
2019-06-27T00:24:59.798Z,28.90
2019-06-27T00:27:28.516Z,28.80
2019-06-27T00:29:57.316Z,28.80
2019-06-27T00:32:25.717Z,28.80
2019-06-27T00:34:54.481Z,28.70
2019-06-27T00:37:23.485Z,28.70
2019-06-27T00:39:51.885Z,28.70
2019-06-27T00:42:20.598Z,28.70
2019-06-27T00:44:49.002Z,28.60
2019-06-27T00:47:17.416Z,28.60
2019-06-27T00:49:46.122Z,28.60
2019-06-27T00:52:14.982Z,28.60
2019-06-27T00:54:43.733Z,28.50
2019-06-27T00:57:14.365Z,28.50
2019-06-27T00:59:42.729Z,28.50
2019-06-27T01:02:11.404Z,28.50
2019-06-27T01:04:40.043Z,28.40
2019-06-27T01:07:08.467Z,28.40
2019-06-27T01:09:36.869Z,28.40
2019-06-27T01:12:05.446Z,28.40
2019-06-27T01:14:33.885Z,28.30
2019-06-27T01:17:02.676Z,28.30
2019-06-27T01:19:31.315Z,28.20
2019-06-27T01:22:00.242Z,28.20
2019-06-27T01:24:29.018Z,28.20
2019-06-27T01:26:57.906Z,28.10
2019-06-27T01:29:26.360Z,28.10
2019-06-27T01:31:55.289Z,28.00
2019-06-27T01:34:23.699Z,28.00
2019-06-27T01:36:52.464Z,27.90
2019-06-27T01:39:20.995Z,27.90
2019-06-27T01:41:49.397Z,27.90
2019-06-27T01:44:36.031Z,27.90
2019-06-27T01:47:05.157Z,27.90
2019-06-27T01:49:34.763Z,27.90
2019-06-27T01:52:03.558Z,27.90
2019-06-27T01:54:32.041Z,27.80
2019-06-27T01:57:00.613Z,27.80
2019-06-27T01:59:29.039Z,27.80
2019-06-27T02:01:57.595Z,27.80
2019-06-27T02:04:26.269Z,27.80
2019-06-27T02:06:54.774Z,27.70
2019-06-27T02:09:23.183Z,27.70
2019-06-27T02:11:51.588Z,27.70
2019-06-27T02:14:20.317Z,27.60
2019-06-27T02:16:48.727Z,27.60
2019-06-27T02:19:17.141Z,27.50
2019-06-27T02:21:45.900Z,27.50
2019-06-27T02:24:14.299Z,27.50
2019-06-27T02:26:42.745Z,27.40
2019-06-27T02:29:11.181Z,27.40
2019-06-27T02:31:42.009Z,27.40
2019-06-27T02:34:10.406Z,27.30
2019-06-27T02:36:38.852Z,27.30
2019-06-27T02:39:07.528Z,27.30
2019-06-27T02:41:36.003Z,27.30
2019-06-27T02:44:04.728Z,27.20
2019-06-27T02:46:33.218Z,27.20
2019-06-27T02:49:01.651Z,27.10
2019-06-27T02:51:30.139Z,27.10
2019-06-27T02:53:58.561Z,27.10
2019-06-27T02:56:27.274Z,27.10
2019-06-27T02:58:55.790Z,27.10
2019-06-27T03:01:24.283Z,27.00
2019-06-27T03:03:52.978Z,27.00
2019-06-27T03:06:21.606Z,26.90
2019-06-27T03:08:50.276Z,26.90
2019-06-27T03:11:18.756Z,26.90
2019-06-27T03:13:47.351Z,26.80
2019-06-27T03:16:15.937Z,26.80
2019-06-27T03:18:44.594Z,26.80
2019-06-27T03:21:13.315Z,26.80
2019-06-27T03:23:41.708Z,26.80
2019-06-27T03:26:11.306Z,26.70
2019-06-27T03:28:51.775Z,26.70
2019-06-27T03:31:09.940Z,26.70
2019-06-27T03:33:38.387Z,26.60
2019-06-27T03:36:06.823Z,26.60
2019-06-27T03:38:35.249Z,26.60
2019-06-27T03:41:03.730Z,26.60
2019-06-27T03:43:32.146Z,26.50
2019-06-27T03:46:00.840Z,26.50
2019-06-27T03:48:29.234Z,26.50
2019-06-27T03:50:58.138Z,26.40
2019-06-27T03:53:26.545Z,26.40
2019-06-27T03:55:55.027Z,26.40
2019-06-27T03:58:23.477Z,26.40
2019-06-27T04:00:52.382Z,26.40
2019-06-27T04:03:21.037Z,26.30
2019-06-27T04:05:49.463Z,26.30
2019-06-27T04:08:17.943Z,26.30
2019-06-27T04:10:46.344Z,26.30
2019-06-27T04:13:14.861Z,26.30
2019-06-27T04:15:43.351Z,26.30
2019-06-27T04:18:11.916Z,26.30
2019-06-27T04:20:40.392Z,26.20
2019-06-27T04:23:10.061Z,26.20
2019-06-27T04:25:38.754Z,26.20
2019-06-27T04:28:07.550Z,26.20
2019-06-27T04:30:35.945Z,26.20
2019-06-27T04:33:04.339Z,26.20
2019-06-27T04:35:33.204Z,26.10
2019-06-27T04:38:01.670Z,26.10
2019-06-27T04:40:30.381Z,26.00
2019-06-27T04:42:58.876Z,26.00
2019-06-27T04:45:27.391Z,26.00
2019-06-27T04:47:55.844Z,26.00
2019-06-27T04:50:24.279Z,26.00
2019-06-27T04:52:52.719Z,26.00
2019-06-27T04:55:21.127Z,26.00
2019-06-27T04:57:49.870Z,26.00
2019-06-27T05:00:24.622Z,26.00
2019-06-27T05:02:53.027Z,25.90
2019-06-27T05:05:21.463Z,25.90
2019-06-27T05:07:49.854Z,25.90
2019-06-27T05:10:18.252Z,25.80
2019-06-27T05:12:46.921Z,25.70
2019-06-27T05:15:15.378Z,25.60
2019-06-27T05:17:44.016Z,25.60
2019-06-27T05:20:13.448Z,25.60
2019-06-27T05:22:41.839Z,25.70
2019-06-27T05:25:10.610Z,25.70
2019-06-27T05:27:39.382Z,25.60
2019-06-27T05:30:10.263Z,25.70
2019-06-27T05:32:38.600Z,25.70
2019-06-27T05:35:07.013Z,25.80
2019-06-27T05:37:35.410Z,25.80
2019-06-27T05:40:07.031Z,25.80
2019-06-27T05:42:35.844Z,25.90
2019-06-27T05:45:05.965Z,26.00
2019-06-27T05:47:34.434Z,26.00
2019-06-27T05:50:04.123Z,26.00
2019-06-27T05:52:32.825Z,26.10
2019-06-27T05:55:01.975Z,26.20
2019-06-27T05:57:30.705Z,26.20
2019-06-27T05:59:59.102Z,26.20
2019-06-27T06:02:27.505Z,26.20
2019-06-27T06:04:56.287Z,26.30
2019-06-27T06:07:24.967Z,26.30
2019-06-27T06:09:53.658Z,26.40
2019-06-27T06:12:23.041Z,26.40
2019-06-27T06:14:51.486Z,26.50
2019-06-27T06:17:19.967Z,26.60
2019-06-27T06:19:48.415Z,26.60
2019-06-27T06:22:17.137Z,26.70
2019-06-27T06:24:45.562Z,26.70
2019-06-27T06:27:14.068Z,26.70
2019-06-27T06:29:42.485Z,26.70
2019-06-27T06:32:11.158Z,26.80
2019-06-27T06:34:39.699Z,26.80
2019-06-27T06:37:08.304Z,26.80
2019-06-27T06:39:36.680Z,26.80
2019-06-27T06:42:05.263Z,26.90
2019-06-27T06:44:33.992Z,26.90
2019-06-27T06:47:02.693Z,26.90
2019-06-27T06:49:31.102Z,27.00
2019-06-27T06:51:59.761Z,27.10
2019-06-27T06:54:28.169Z,27.10
2019-06-27T06:56:56.663Z,27.10
2019-06-27T06:59:25.567Z,27.10
2019-06-27T07:01:54.045Z,27.20
2019-06-27T07:04:22.809Z,27.20
2019-06-27T07:06:51.511Z,27.30
2019-06-27T07:09:19.910Z,27.30
2019-06-27T07:11:48.347Z,27.30
2019-06-27T07:14:17.077Z,27.40
2019-06-27T07:16:45.942Z,27.40
2019-06-27T07:19:14.871Z,27.40
2019-06-27T07:21:43.339Z,27.50
2019-06-27T07:24:11.757Z,27.40
2019-06-27T07:26:40.150Z,27.50
2019-06-27T07:29:08.642Z,27.50
2019-06-27T07:31:37.105Z,27.60
2019-06-27T07:34:05.841Z,27.70
2019-06-27T07:36:34.278Z,27.80
2019-06-27T07:39:02.691Z,27.80
2019-06-27T07:41:31.153Z,27.70
2019-06-27T07:44:00.354Z,27.50
2019-06-27T07:46:29.401Z,27.40
2019-06-27T07:48:57.825Z,27.50
2019-06-27T07:51:26.311Z,27.60
2019-06-27T07:53:55.102Z,27.60
2019-06-27T07:56:24.465Z,27.70
2019-06-27T07:58:53.179Z,27.80
2019-06-27T08:01:34.493Z,27.90
2019-06-27T08:03:51.738Z,28.00
2019-06-27T08:06:20.161Z,28.20
2019-06-27T08:08:48.948Z,28.20
2019-06-27T08:11:17.357Z,28.30
2019-06-27T08:13:45.822Z,28.30
2019-06-27T08:16:14.340Z,28.20
2019-06-27T08:18:42.768Z,28.20
2019-06-27T08:21:11.509Z,28.30
2019-06-27T08:23:41.819Z,28.30
2019-06-27T08:26:10.337Z,28.40
2019-06-27T08:28:38.890Z,28.50
2019-06-27T08:31:07.428Z,28.50
2019-06-27T08:33:36.168Z,28.50
2019-06-27T08:36:04.600Z,28.60
2019-06-27T08:38:33.051Z,28.70
2019-06-27T08:41:01.812Z,28.70
2019-06-27T08:43:30.225Z,28.70
2019-06-27T08:45:58.897Z,28.80
2019-06-27T08:48:27.362Z,28.90
2019-06-27T08:50:56.181Z,29.00
2019-06-27T08:53:24.578Z,29.10
2019-06-27T08:55:53.006Z,29.20
2019-06-27T08:58:21.423Z,29.20
2019-06-27T09:00:50.114Z,29.10
2019-06-27T09:03:18.814Z,29.10
2019-06-27T09:05:47.500Z,29.20
2019-06-27T09:08:15.954Z,29.20
2019-06-27T09:10:44.841Z,29.30
2019-06-27T09:13:13.271Z,29.40
2019-06-27T09:15:41.733Z,29.50
2019-06-27T09:18:10.159Z,29.60
2019-06-27T09:20:38.551Z,29.70
2019-06-27T09:23:07.017Z,29.80
2019-06-27T09:25:35.457Z,30.00
2019-06-27T09:28:04.174Z,30.20
2019-06-27T09:30:32.671Z,30.40
2019-06-27T09:33:01.565Z,30.60
2019-06-27T09:35:29.952Z,30.80
2019-06-27T09:37:58.354Z,31.10
2019-06-27T09:40:27.131Z,31.50
2019-06-27T09:42:55.547Z,31.80
2019-06-27T09:45:24.632Z,32.20
2019-06-27T09:47:53.078Z,32.50
2019-06-27T09:50:21.880Z,32.80
2019-06-27T09:52:50.563Z,33.00
2019-06-27T09:55:19.934Z,33.10
2019-06-27T09:57:48.344Z,33.20
2019-06-27T10:00:17.772Z,33.00
2019-06-27T10:02:47.055Z,32.90
2019-06-27T10:05:16.076Z,32.70
2019-06-27T10:07:45.717Z,32.50
2019-06-27T10:10:15.941Z,32.20
2019-06-27T10:12:44.623Z,32.00
2019-06-27T10:15:13.579Z,31.80
2019-06-27T10:17:42.085Z,31.60
2019-06-27T10:20:12.622Z,31.40
2019-06-27T10:22:41.009Z,31.30
2019-06-27T10:25:09.523Z,31.10
2019-06-27T10:27:37.987Z,30.90
2019-06-27T10:30:08.070Z,30.90
2019-06-27T10:32:36.522Z,30.70
2019-06-27T10:35:07.266Z,30.60
2019-06-27T10:37:35.669Z,30.60
2019-06-27T10:40:09.707Z,30.60
2019-06-27T10:42:38.183Z,30.40
2019-06-27T10:45:10.067Z,30.40
2019-06-27T10:47:38.548Z,30.40
2019-06-27T10:50:07.554Z,30.30
2019-06-27T10:52:36.153Z,30.20
2019-06-27T10:55:05.636Z,30.10
2019-06-27T10:57:34.037Z,30.10
2019-06-27T11:00:02.575Z,30.10
2019-06-27T11:02:31.012Z,30.10
2019-06-27T11:04:59.437Z,30.10
2019-06-27T11:07:28.104Z,30.10
2019-06-27T11:09:56.574Z,30.20
2019-06-27T11:12:25.245Z,30.20
2019-06-27T11:14:59.082Z,30.20
2019-06-27T11:17:24.044Z,30.10
2019-06-27T11:19:53.018Z,30.10
2019-06-27T11:22:21.518Z,30.10
2019-06-27T11:24:50.217Z,30.20
2019-06-27T11:27:18.612Z,30.40
2019-06-27T11:29:47.247Z,30.50
2019-06-27T11:32:16.152Z,30.70
2019-06-27T11:34:44.871Z,30.90
2019-06-27T11:37:13.270Z,31.10
2019-06-27T11:39:41.934Z,31.30
2019-06-27T11:42:10.342Z,31.50
2019-06-27T11:44:39.011Z,31.60
2019-06-27T11:47:07.451Z,31.70
2019-06-27T11:49:36.107Z,31.70
2019-06-27T11:52:05.012Z,31.70
2019-06-27T11:54:33.679Z,31.70
2019-06-27T11:57:02.193Z,31.60
2019-06-27T11:59:30.680Z,31.70
2019-06-27T12:01:59.105Z,31.70
2019-06-27T12:04:27.837Z,31.70
2019-06-27T12:06:57.123Z,31.70
2019-06-27T12:09:25.919Z,31.60
2019-06-27T12:11:54.540Z,31.60
2019-06-27T12:14:23.201Z,31.50
2019-06-27T12:16:51.902Z,31.50
2019-06-27T12:19:20.390Z,31.50
2019-06-27T12:21:49.088Z,31.40
2019-06-27T12:24:17.498Z,31.40
2019-06-27T12:26:45.894Z,31.30
2019-06-27T12:29:14.287Z,31.30
2019-06-27T12:31:43.060Z,31.20
2019-06-27T12:34:11.446Z,31.20
2019-06-27T12:36:39.841Z,31.10
2019-06-27T12:39:08.611Z,31.20
2019-06-27T12:41:37.465Z,31.20
2019-06-27T12:44:08.706Z,31.30
2019-06-27T12:46:37.214Z,31.30
2019-06-27T12:49:05.695Z,31.40
2019-06-27T12:51:35.495Z,31.40
2019-06-27T12:54:06.334Z,31.40
2019-06-27T12:56:35.031Z,31.40
2019-06-27T12:59:03.448Z,31.50
2019-06-27T13:01:32.119Z,31.50
2019-06-27T13:04:00.526Z,31.60
2019-06-27T13:06:28.991Z,31.60
2019-06-27T13:08:57.481Z,31.60
2019-06-27T13:11:25.887Z,31.70
2019-06-27T13:13:54.354Z,31.70
2019-06-27T13:16:22.806Z,31.70
2019-06-27T13:18:51.193Z,31.70
2019-06-27T13:21:19.899Z,31.80
2019-06-27T13:23:49.088Z,31.80
2019-06-27T13:26:17.553Z,31.90
2019-06-27T13:28:46.021Z,31.90
2019-06-27T13:31:14.677Z,31.90
2019-06-27T13:33:43.330Z,31.90
2019-06-27T13:36:11.741Z,32.00
2019-06-27T13:38:40.519Z,32.00
2019-06-27T13:41:09.264Z,31.90
2019-06-27T13:43:37.686Z,31.90
2019-06-27T13:46:06.148Z,31.90
2019-06-27T13:48:34.875Z,31.90
2019-06-27T13:51:03.311Z,31.90
2019-06-27T13:53:32.069Z,32.00
2019-06-27T13:56:00.728Z,32.00
2019-06-27T13:58:29.142Z,32.00
2019-06-27T14:00:57.575Z,32.00
2019-06-27T14:03:25.981Z,32.10
2019-06-27T14:05:54.393Z,32.20
2019-06-27T14:08:26.075Z,32.20
2019-06-27T14:10:52.949Z,32.30
2019-06-27T14:13:21.485Z,32.30
2019-06-27T14:15:50.559Z,32.40
2019-06-27T14:18:19.598Z,32.40
2019-06-27T14:20:48.107Z,32.40
2019-06-27T14:23:17.146Z,32.50
2019-06-27T14:25:45.542Z,32.40
2019-06-27T14:28:13.950Z,32.50
2019-06-27T14:30:42.709Z,32.60
2019-06-27T14:33:11.397Z,32.60
2019-06-27T14:35:39.789Z,32.60
2019-06-27T14:38:08.209Z,32.70
2019-06-27T14:40:36.660Z,32.80
2019-06-27T14:43:05.073Z,32.90
2019-06-27T14:45:33.746Z,32.90
2019-06-27T14:48:02.624Z,32.90
2019-06-27T14:50:31.131Z,33.00
2019-06-27T14:52:59.645Z,33.00
2019-06-27T14:55:28.294Z,32.90
2019-06-27T14:57:56.713Z,33.00
2019-06-27T15:00:26.263Z,33.00
2019-06-27T15:02:54.792Z,33.00
2019-06-27T15:05:32.400Z,33.00
2019-06-27T15:07:53.647Z,33.00
2019-06-27T15:10:22.377Z,33.00
2019-06-27T15:12:56.890Z,33.10
2019-06-27T15:15:20.994Z,33.00
2019-06-27T15:17:49.486Z,32.90
2019-06-27T15:20:18.133Z,32.90
2019-06-27T15:22:46.830Z,32.90
2019-06-27T15:25:15.746Z,33.00
2019-06-27T15:27:44.735Z,33.00
2019-06-27T15:30:13.359Z,33.00
2019-06-27T15:32:41.840Z,33.00
2019-06-27T15:35:10.466Z,33.00
2019-06-27T15:37:38.895Z,33.00
2019-06-27T15:40:08.111Z,32.90
2019-06-27T15:42:36.853Z,32.90
2019-06-27T15:45:07.843Z,32.90
2019-06-27T15:47:36.303Z,32.90
2019-06-27T15:50:07.007Z,32.90
2019-06-27T15:52:35.928Z,32.80
2019-06-27T15:55:07.088Z,32.90
2019-06-27T15:57:36.065Z,32.90
2019-06-27T16:00:09.686Z,32.80
2019-06-27T16:02:38.194Z,32.80
2019-06-27T16:05:07.552Z,32.80
2019-06-27T16:07:36.365Z,32.80
2019-06-27T16:10:07.040Z,32.80
2019-06-27T16:12:35.605Z,32.70
2019-06-27T16:15:08.743Z,32.70
2019-06-27T16:17:37.147Z,32.70
2019-06-27T16:20:08.022Z,32.70
2019-06-27T16:22:37.080Z,32.70
2019-06-27T16:25:07.641Z,32.60
2019-06-27T16:27:36.038Z,32.60
2019-06-27T16:30:07.461Z,32.60
2019-06-27T16:32:36.156Z,32.50
2019-06-27T16:35:06.410Z,32.50
2019-06-27T16:37:34.852Z,32.50
2019-06-27T16:40:07.319Z,32.40
2019-06-27T16:42:35.968Z,32.40
2019-06-27T16:45:08.368Z,32.40
2019-06-27T16:47:36.870Z,32.40
2019-06-27T16:50:05.507Z,32.50
2019-06-27T16:52:34.384Z,32.50
2019-06-27T16:55:03.117Z,32.50
2019-06-27T16:57:31.893Z,32.50
2019-06-27T17:00:00.526Z,32.40
2019-06-27T17:02:29.010Z,32.40
2019-06-27T17:04:57.438Z,32.20
2019-06-27T17:07:27.545Z,32.20
2019-06-27T17:09:55.947Z,32.20
2019-06-27T17:12:24.629Z,32.20
2019-06-27T17:14:53.405Z,32.10
2019-06-27T17:17:23.080Z,32.10
2019-06-27T17:19:51.821Z,32.10
2019-06-27T17:22:20.423Z,32.10
2019-06-27T17:24:48.997Z,32.00
2019-06-27T17:27:17.423Z,32.00
2019-06-27T17:29:45.910Z,32.00
2019-06-27T17:32:14.359Z,32.00
2019-06-27T17:34:43.035Z,31.90
2019-06-27T17:37:11.724Z,31.90
2019-06-27T17:39:40.538Z,31.90
2019-06-27T17:42:08.954Z,31.80
2019-06-27T17:44:37.926Z,31.70
2019-06-27T17:47:06.587Z,31.70
2019-06-27T17:49:35.415Z,31.60
2019-06-27T17:52:04.181Z,31.60
2019-06-27T17:54:32.886Z,31.60
2019-06-27T17:57:01.288Z,31.50
2019-06-27T17:59:30.051Z,31.50
2019-06-27T18:01:58.510Z,31.40
2019-06-27T18:04:27.239Z,31.40
2019-06-27T18:06:56.178Z,31.30
2019-06-27T18:09:24.590Z,31.20
2019-06-27T18:11:52.996Z,31.10
2019-06-27T18:14:22.445Z,31.10
2019-06-27T18:16:51.181Z,31.00
2019-06-27T18:19:19.649Z,31.00
2019-06-27T18:21:48.355Z,31.00
2019-06-27T18:24:18.713Z,31.00
2019-06-27T18:26:47.118Z,30.90
2019-06-27T18:29:15.840Z,30.90
2019-06-27T18:31:44.459Z,30.90
2019-06-27T18:34:12.886Z,30.60
2019-06-27T18:36:41.337Z,30.60
2019-06-27T18:39:10.227Z,30.50
2019-06-27T18:41:39.098Z,30.50
2019-06-27T18:44:07.555Z,30.50
2019-06-27T18:46:36.322Z,30.50
2019-06-27T18:49:04.831Z,30.50
2019-06-27T18:51:34.724Z,30.50
2019-06-27T18:54:03.162Z,30.30
2019-06-27T18:56:31.625Z,30.30
2019-06-27T18:59:00.447Z,30.30
2019-06-27T19:01:29.156Z,30.30
2019-06-27T19:03:57.538Z,30.30
2019-06-27T19:06:26.298Z,30.20
2019-06-27T19:08:54.987Z,30.20
2019-06-27T19:11:23.397Z,30.10
2019-06-27T19:13:52.054Z,30.00
2019-06-27T19:16:20.465Z,29.90
2019-06-27T19:18:53.416Z,29.80
2019-06-27T19:21:38.601Z,29.80
2019-06-27T19:24:20.570Z,29.60
2019-06-27T19:26:51.139Z,29.60
2019-06-27T19:29:19.876Z,29.50
2019-06-27T19:31:48.285Z,29.40
2019-06-27T19:34:17.112Z,29.30
2019-06-27T19:36:46.075Z,29.20
2019-06-27T19:39:15.323Z,29.20
2019-06-27T19:41:43.813Z,29.10
2019-06-27T19:44:12.606Z,29.00
2019-06-27T19:46:41.201Z,28.90
2019-06-27T19:49:10.721Z,28.80
2019-06-27T19:51:39.477Z,28.80
2019-06-27T19:54:09.496Z,28.70
2019-06-27T19:56:38.786Z,28.70
2019-06-27T19:59:07.510Z,28.60
2019-06-27T20:01:35.925Z,28.60
2019-06-27T20:04:04.679Z,28.50
2019-06-27T20:06:33.186Z,28.50
2019-06-27T20:09:01.934Z,28.50
2019-06-27T20:11:30.412Z,28.40
2019-06-27T20:13:59.117Z,28.40
2019-06-27T20:16:27.830Z,28.30
2019-06-27T20:18:56.600Z,28.30
2019-06-27T20:21:25.811Z,28.20
2019-06-27T20:23:54.614Z,28.20
2019-06-27T20:26:23.165Z,28.10
2019-06-27T20:28:51.716Z,28.00
2019-06-27T20:31:20.935Z,27.90
2019-06-27T20:33:49.630Z,27.80
2019-06-27T20:36:18.119Z,27.80
2019-06-27T20:38:46.853Z,27.70
2019-06-27T20:41:15.772Z,27.60
2019-06-27T20:43:44.461Z,27.50
2019-06-27T20:46:13.193Z,27.50
2019-06-27T20:48:41.635Z,27.50
2019-06-27T20:51:10.074Z,27.40
2019-06-27T20:53:38.476Z,27.40
2019-06-27T20:56:07.392Z,27.30
2019-06-27T20:58:36.163Z,27.30
2019-06-27T21:01:04.753Z,27.30
2019-06-27T21:03:33.252Z,27.20
2019-06-27T21:06:01.669Z,27.20
2019-06-27T21:08:30.542Z,27.20
2019-06-27T21:10:59.412Z,27.20
2019-06-27T21:13:27.842Z,27.10
2019-06-27T21:15:56.291Z,27.10
2019-06-27T21:18:25.114Z,27.00
2019-06-27T21:20:53.516Z,26.90
2019-06-27T21:23:22.270Z,26.90
2019-06-27T21:25:51.194Z,26.80
2019-06-27T21:28:19.641Z,26.80
2019-06-27T21:30:48.309Z,26.80
2019-06-27T21:33:16.754Z,26.70
2019-06-27T21:35:45.938Z,26.70
2019-06-27T21:38:15.095Z,26.70
2019-06-27T21:40:45.331Z,26.60
2019-06-27T21:43:13.757Z,26.60
2019-06-27T21:45:42.168Z,26.60
2019-06-27T21:48:10.674Z,26.60
2019-06-27T21:50:39.075Z,26.60
2019-06-27T21:53:07.493Z,26.50
2019-06-27T21:55:36.017Z,26.50
2019-06-27T21:58:05.172Z,26.50
2019-06-27T22:00:35.366Z,26.50
2019-06-27T22:03:04.214Z,26.40
2019-06-27T22:05:32.644Z,26.40
2019-06-27T22:08:01.441Z,26.30
2019-06-27T22:10:30.664Z,26.30
2019-06-27T22:12:59.066Z,26.30
2019-06-27T22:15:27.823Z,26.20
2019-06-27T22:17:56.631Z,26.20
2019-06-27T22:20:25.224Z,26.10
2019-06-27T22:22:53.652Z,26.10
2019-06-27T22:25:22.087Z,26.00
2019-06-27T22:27:50.500Z,26.00
2019-06-27T22:30:19.796Z,25.90
2019-06-27T22:32:48.230Z,25.90
2019-06-27T22:35:16.881Z,25.90
2019-06-27T22:38:03.956Z,25.80
2019-06-27T22:40:50.525Z,25.80
2019-06-27T22:43:36.825Z,25.80
2019-06-27T22:46:23.162Z,25.70
2019-06-27T22:48:51.494Z,25.70
2019-06-27T22:51:21.848Z,25.60
2019-06-27T22:53:55.028Z,25.60
2019-06-27T22:56:23.827Z,25.60
2019-06-27T22:58:52.670Z,25.60
2019-06-27T23:01:21.401Z,25.50
2019-06-27T23:03:49.861Z,25.40
2019-06-27T23:06:18.285Z,25.40
2019-06-27T23:08:47.104Z,25.30
2019-06-27T23:11:15.659Z,25.30
2019-06-27T23:13:45.852Z,25.30
2019-06-27T23:16:14.795Z,25.30
2019-06-27T23:18:43.261Z,25.20
2019-06-27T23:21:12.181Z,25.20
2019-06-27T23:23:40.595Z,25.10
2019-06-27T23:26:09.338Z,25.10
2019-06-27T23:28:37.761Z,25.00
2019-06-27T23:31:06.200Z,25.00
2019-06-27T23:33:34.653Z,25.00
2019-06-27T23:36:03.893Z,24.90
2019-06-27T23:38:32.309Z,24.90
2019-06-27T23:41:02.785Z,24.80
2019-06-27T23:43:31.516Z,24.70
2019-06-27T23:45:59.992Z,24.70
2019-06-27T23:48:28.450Z,24.60
2019-06-27T23:50:57.708Z,24.60
2019-06-27T23:53:26.122Z,24.60
2019-06-27T23:55:54.719Z,24.50
2019-06-27T23:58:23.138Z,24.50
